Yuba County Airport Marysville US
ICAO: KMYV
IATA: MYV
Category: Medium
Scheduled Services: No

Elevation: 64 ft
TransAlt. 18000 ft.

Airport Communications:
NORCAL APP/DEP:125.4
ASOS:118.475
RANCHO RDO:122.6
CTAF/UNICOM:123.05

KMYV Zoom In..

Runways:

(A) RW 05 length 3281 ft width 60 ft
---- / hdg 51

(B) RW 14 length 6006 ft width 150 ft
ILS 110.50 / hdg 141

(C) RW 23 length 3281 ft width 60 ft
---- / hdg 231

(D) RW 32 length 6006 ft width 150 ft
---- / hdg 321

Location; KMYV
Day. 15 / Time. 21.53 Zulu
* Altimeter: 29.87
* Temperature: 34° c. 93.2°f.
* Wind from: 210° Speed 05 kn.
Dewpoint: 17° c.
Visibility: 10 Statute Miles.
Clouds: Clear (automated report).

KMYV 152153Z AUTO 21005KT 10SM CLR 34/17 A2987 RMK AO2 SLP117 T03440172


Wind From 210°
Speed 05 kn.

 
 
jpsmedia.com for Web Design worldairports.se 2018   terms of use